createdAt,value
2017-10-28T00:00:26.619Z,0
2017-10-28T00:01:26.359Z,0
2017-10-28T00:02:26.355Z,0
2017-10-28T00:03:25.711Z,0
2017-10-28T00:04:26.033Z,0
2017-10-28T00:05:26.342Z,0
2017-10-28T00:06:26.348Z,0
2017-10-28T00:07:25.691Z,0
2017-10-28T00:08:26.007Z,0
2017-10-28T00:09:26.016Z,0
2017-10-28T00:10:26.012Z,0
2017-10-28T00:11:25.676Z,0
2017-10-28T00:12:26.313Z,0
2017-10-28T00:13:25.991Z,0
2017-10-28T00:14:25.365Z,0
2017-10-28T00:15:25.655Z,0
2017-10-28T00:16:25.658Z,0
2017-10-28T00:17:25.981Z,0
2017-10-28T00:18:25.656Z,0
2017-10-28T00:19:25.960Z,0
2017-10-28T00:20:27.098Z,0
2017-10-28T00:21:25.407Z,0
2017-10-28T00:22:25.959Z,0
2017-10-28T00:23:25.309Z,0
2017-10-28T00:24:25.947Z,0
2017-10-28T00:25:26.005Z,0
2017-10-28T00:26:25.634Z,0
2017-10-28T00:27:25.608Z,0
2017-10-28T00:28:25.608Z,0
2017-10-28T00:29:25.621Z,0
2017-10-28T00:30:25.872Z,0
2017-10-28T00:31:25.925Z,0
2017-10-28T00:32:25.940Z,0
2017-10-28T00:33:24.948Z,0
2017-10-28T00:34:25.596Z,0
2017-10-28T00:35:25.701Z,0
2017-10-28T00:36:26.217Z,0
2017-10-28T00:37:26.210Z,0
2017-10-28T00:38:26.220Z,0
2017-10-28T00:39:25.565Z,0
2017-10-28T00:40:25.966Z,0
2017-10-28T00:41:25.538Z,0
2017-10-28T00:42:26.182Z,0
2017-10-28T00:43:25.875Z,0
2017-10-28T00:44:25.864Z,0
2017-10-28T00:45:25.888Z,0
2017-10-28T00:46:25.863Z,0
2017-10-28T00:47:26.186Z,0
2017-10-28T00:48:25.512Z,0
2017-10-28T00:49:25.829Z,0
2017-10-28T00:50:25.834Z,0
2017-10-28T00:51:25.181Z,0
2017-10-28T00:52:25.843Z,0
2017-10-28T00:53:25.815Z,0
2017-10-28T00:54:25.182Z,0
2017-10-28T00:55:25.805Z,0
2017-10-28T00:56:26.136Z,0
2017-10-28T00:57:25.154Z,0
2017-10-28T00:58:25.472Z,0
2017-10-28T00:59:25.785Z,0
2017-10-28T01:00:26.776Z,0
2017-10-28T01:01:25.141Z,0
2017-10-28T01:02:26.093Z,0
2017-10-28T01:03:25.449Z,0
2017-10-28T01:04:25.766Z,0
2017-10-28T01:05:26.047Z,0
2017-10-28T01:06:25.749Z,0
2017-10-28T01:07:25.431Z,0
2017-10-28T01:08:26.076Z,0
2017-10-28T01:09:26.069Z,0
2017-10-28T01:10:25.418Z,0
2017-10-28T01:11:25.741Z,0
2017-10-28T01:12:25.731Z,0
2017-10-28T01:13:26.039Z,0
2017-10-28T01:14:26.060Z,0
2017-10-28T01:15:25.698Z,0
2017-10-28T01:16:25.392Z,0
2017-10-28T01:17:25.707Z,0
2017-10-28T01:18:25.722Z,0
2017-10-28T01:19:25.718Z,0
2017-10-28T01:20:25.775Z,0
2017-10-28T01:21:25.682Z,0
2017-10-28T01:22:25.687Z,0
2017-10-28T01:23:25.354Z,0
2017-10-28T01:24:25.680Z,0
2017-10-28T01:25:25.665Z,0
2017-10-28T01:26:25.668Z,0
2017-10-28T01:27:25.340Z,0
2017-10-28T01:28:25.647Z,0
2017-10-28T01:29:25.974Z,0
2017-10-28T01:30:26.262Z,0
2017-10-28T01:31:25.318Z,0
2017-10-28T01:32:25.633Z,0
2017-10-28T01:33:25.972Z,0
2017-10-28T01:34:25.963Z,0
2017-10-28T01:35:25.622Z,0
2017-10-28T01:36:25.330Z,0
2017-10-28T01:37:25.621Z,0
2017-10-28T01:38:24.963Z,0
2017-10-28T01:39:25.386Z,0
2017-10-28T01:40:24.962Z,0
2017-10-28T01:41:24.955Z,0
2017-10-28T01:42:25.596Z,0
2017-10-28T01:43:25.583Z,0
2017-10-28T01:44:25.588Z,0
2017-10-28T01:45:25.595Z,0
2017-10-28T01:46:25.600Z,0
2017-10-28T01:47:25.260Z,0
2017-10-28T01:48:25.580Z,0
2017-10-28T01:49:25.561Z,0
2017-10-28T01:50:26.025Z,0
2017-10-28T01:51:25.886Z,0
2017-10-28T01:52:24.918Z,0
2017-10-28T01:53:25.561Z,0
2017-10-28T01:54:25.257Z,0
2017-10-28T01:55:25.220Z,0
2017-10-28T01:56:25.209Z,0
2017-10-28T01:57:25.533Z,0
2017-10-28T01:58:25.528Z,0
2017-10-28T01:59:25.844Z,0
2017-10-28T02:00:25.360Z,0
2017-10-28T02:01:25.517Z,0
2017-10-28T02:02:25.188Z,0
2017-10-28T02:03:25.507Z,0
2017-10-28T02:04:25.507Z,0
2017-10-28T02:05:25.495Z,0
2017-10-28T02:06:25.824Z,0
2017-10-28T02:07:25.492Z,0
2017-10-28T02:08:25.819Z,0
2017-10-28T02:09:25.479Z,0
2017-10-28T02:10:25.479Z,0
2017-10-28T02:11:25.477Z,0
2017-10-28T02:12:25.169Z,0
2017-10-28T02:13:25.150Z,0
2017-10-28T02:14:25.465Z,0
2017-10-28T02:15:26.091Z,0
2017-10-28T02:16:24.810Z,0
2017-10-28T02:17:25.132Z,0
2017-10-28T02:18:25.451Z,0
2017-10-28T02:19:25.445Z,0
2017-10-28T02:20:25.756Z,0
2017-10-28T02:21:25.142Z,0
2017-10-28T02:22:25.758Z,0
2017-10-28T02:23:25.744Z,0
2017-10-28T02:24:25.591Z,0
2017-10-28T02:25:25.105Z,0
2017-10-28T02:26:26.213Z,0
2017-10-28T02:27:26.109Z,0
2017-10-28T02:28:25.104Z,0
2017-10-28T02:29:25.435Z,0
2017-10-28T02:30:25.415Z,0
2017-10-28T02:31:25.775Z,0
2017-10-28T02:32:25.711Z,0
2017-10-28T02:33:25.707Z,0
2017-10-28T02:34:25.382Z,0
2017-10-28T02:35:25.060Z,0
2017-10-28T02:36:25.704Z,0
2017-10-28T02:37:25.054Z,0
2017-10-28T02:38:25.710Z,0
2017-10-28T02:39:25.705Z,0
2017-10-28T02:40:25.094Z,0
2017-10-28T02:41:25.374Z,0
2017-10-28T02:42:24.723Z,0
2017-10-28T02:43:25.772Z,0
2017-10-28T02:44:25.670Z,0
2017-10-28T02:45:25.385Z,0
2017-10-28T02:46:27.270Z,0
2017-10-28T02:47:25.647Z,0
2017-10-28T02:48:25.359Z,0
2017-10-28T02:49:25.332Z,0
2017-10-28T02:50:25.577Z,0
2017-10-28T02:51:25.321Z,0
2017-10-28T02:52:25.635Z,0
2017-10-28T02:53:24.993Z,0
2017-10-28T02:54:25.328Z,0
2017-10-28T02:55:25.263Z,0
2017-10-28T02:56:25.621Z,0
2017-10-28T02:57:25.297Z,0
2017-10-28T02:58:24.969Z,0
2017-10-28T02:59:24.976Z,0
2017-10-28T03:00:26.177Z,0
2017-10-28T03:01:24.994Z,0
2017-10-28T03:02:25.589Z,0
2017-10-28T03:03:25.266Z,0
2017-10-28T03:04:25.273Z,0
2017-10-28T03:05:24.686Z,0
2017-10-28T03:06:25.278Z,0
2017-10-28T03:07:24.625Z,0
2017-10-28T03:08:25.247Z,0
2017-10-28T03:09:24.913Z,0
2017-10-28T03:10:25.330Z,0
2017-10-28T03:11:24.917Z,0
2017-10-28T03:12:24.917Z,0
2017-10-28T03:13:25.221Z,0
2017-10-28T03:14:25.235Z,0
2017-10-28T03:15:25.011Z,0
2017-10-28T03:16:25.346Z,0
2017-10-28T03:17:25.522Z,0
2017-10-28T03:18:24.878Z,0
2017-10-28T03:19:25.510Z,0
2017-10-28T03:20:25.267Z,0
2017-10-28T03:21:25.217Z,0
2017-10-28T03:22:24.859Z,0
2017-10-28T03:23:25.173Z,0
2017-10-28T03:24:24.866Z,0
2017-10-28T03:25:25.267Z,0
2017-10-28T03:26:25.175Z,0
2017-10-28T03:27:24.842Z,0
2017-10-28T03:28:25.160Z,0
2017-10-28T03:29:24.841Z,0
2017-10-28T03:30:24.764Z,0
2017-10-28T03:31:25.460Z,0
2017-10-28T03:32:25.463Z,0
2017-10-28T03:33:25.155Z,0
2017-10-28T03:34:25.133Z,0
2017-10-28T03:35:25.532Z,0
2017-10-28T03:36:25.127Z,0
2017-10-28T03:37:24.782Z,0
2017-10-28T03:38:25.101Z,0
2017-10-28T03:39:25.097Z,0
2017-10-28T03:40:25.311Z,0
2017-10-28T03:41:25.106Z,0
2017-10-28T03:42:24.446Z,0
2017-10-28T03:43:25.076Z,0
2017-10-28T03:44:24.428Z,0
2017-10-28T03:45:25.382Z,0
2017-10-28T03:46:27.553Z,0
2017-10-28T03:47:25.061Z,0
2017-10-28T03:48:25.383Z,0
2017-10-28T03:49:25.060Z,0
2017-10-28T03:50:25.210Z,0
2017-10-28T03:51:24.731Z,0
2017-10-28T03:52:24.421Z,0
2017-10-28T03:53:25.356Z,0
2017-10-28T03:54:24.697Z,0
2017-10-28T03:55:25.181Z,0
2017-10-28T03:56:25.054Z,0
2017-10-28T03:57:25.012Z,0
2017-10-28T03:58:25.333Z,0
2017-10-28T03:59:25.344Z,0
2017-10-28T04:00:24.381Z,0
2017-10-28T04:01:25.000Z,0
2017-10-28T04:02:25.255Z,0
2017-10-28T04:03:24.979Z,0
2017-10-28T04:04:24.987Z,0
2017-10-28T04:05:24.860Z,0
2017-10-28T04:06:24.981Z,0
2017-10-28T04:07:24.325Z,0
2017-10-28T04:08:24.312Z,0
2017-10-28T04:09:24.972Z,0
2017-10-28T04:10:25.028Z,0
2017-10-28T04:11:24.959Z,0
2017-10-28T04:12:25.263Z,0
2017-10-28T04:13:24.936Z,0
2017-10-28T04:14:24.613Z,0
2017-10-28T04:15:25.085Z,0
2017-10-28T04:16:24.934Z,0
2017-10-28T04:17:26.439Z,0
2017-10-28T04:18:24.270Z,0
2017-10-28T04:19:24.581Z,0
2017-10-28T04:20:25.069Z,0
2017-10-28T04:21:24.566Z,0
2017-10-28T04:22:24.879Z,0
2017-10-28T04:23:24.886Z,0
2017-10-28T04:24:25.207Z,0
2017-10-28T04:25:24.875Z,0
2017-10-28T04:26:24.545Z,0
2017-10-28T04:27:24.530Z,0
2017-10-28T04:28:25.199Z,0
2017-10-28T04:29:25.168Z,0
2017-10-28T04:30:25.309Z,0
2017-10-28T04:31:24.843Z,0
2017-10-28T04:32:25.218Z,0
2017-10-28T04:33:24.828Z,0
2017-10-28T04:34:24.203Z,0
2017-10-28T04:35:24.689Z,0
2017-10-28T04:36:24.485Z,0
2017-10-28T04:37:24.808Z,0
2017-10-28T04:38:24.832Z,0
2017-10-28T04:39:24.498Z,0
2017-10-28T04:40:24.679Z,0
2017-10-28T04:41:24.792Z,0
2017-10-28T04:42:24.796Z,0
2017-10-28T04:43:25.110Z,0
2017-10-28T04:44:25.102Z,0
2017-10-28T04:45:25.138Z,0
2017-10-28T04:46:24.780Z,0
2017-10-28T04:47:24.440Z,0
2017-10-28T04:48:28.381Z,0
2017-10-28T04:49:25.072Z,0
2017-10-28T04:50:24.990Z,0
2017-10-28T04:51:24.742Z,0
2017-10-28T04:52:24.740Z,0
2017-10-28T04:53:24.748Z,0
2017-10-28T04:54:24.398Z,0
2017-10-28T04:55:25.268Z,0
2017-10-28T04:56:24.398Z,0
2017-10-28T04:57:24.721Z,0
2017-10-28T04:58:25.023Z,0
2017-10-28T04:59:25.027Z,0
2017-10-28T05:00:24.895Z,0
2017-10-28T05:01:24.361Z,0
2017-10-28T05:02:24.998Z,0
2017-10-28T05:03:25.848Z,0
2017-10-28T05:04:24.670Z,0
2017-10-28T05:05:24.750Z,0
2017-10-28T05:06:24.987Z,0
2017-10-28T05:07:24.682Z,0
2017-10-28T05:08:24.967Z,0
2017-10-28T05:09:24.973Z,0
2017-10-28T05:10:24.499Z,0
2017-10-28T05:11:24.316Z,0
2017-10-28T05:12:24.334Z,0
2017-10-28T05:13:24.297Z,0
2017-10-28T05:14:24.615Z,0
2017-10-28T05:15:24.988Z,0
2017-10-28T05:16:24.285Z,0
2017-10-28T05:17:24.924Z,0
2017-10-28T05:18:25.637Z,0
2017-10-28T05:19:24.597Z,0
2017-10-28T05:20:24.358Z,0
2017-10-28T05:21:24.258Z,0
2017-10-28T05:22:24.929Z,0
2017-10-28T05:23:24.896Z,0
2017-10-28T05:24:24.247Z,0
2017-10-28T05:25:25.156Z,0
2017-10-28T05:26:24.230Z,0
2017-10-28T05:27:24.561Z,0
2017-10-28T05:28:24.240Z,0
2017-10-28T05:29:24.939Z,0
2017-10-28T05:30:24.746Z,0
2017-10-28T05:31:23.898Z,0
2017-10-28T05:32:24.858Z,0
2017-10-28T05:33:24.230Z,0
2017-10-28T05:34:24.689Z,0
2017-10-28T05:35:24.634Z,0
2017-10-28T05:36:24.840Z,0
2017-10-28T05:37:24.842Z,0
2017-10-28T05:38:24.511Z,0
2017-10-28T05:39:24.821Z,0
2017-10-28T05:40:24.291Z,0
2017-10-28T05:41:24.494Z,0
2017-10-28T05:42:24.171Z,0
2017-10-28T05:43:24.176Z,0
2017-10-28T05:44:24.167Z,0
2017-10-28T05:45:24.141Z,0
2017-10-28T05:46:24.477Z,0
2017-10-28T05:47:24.147Z,0
2017-10-28T05:48:24.779Z,0
2017-10-28T05:49:25.659Z,0
2017-10-28T05:50:24.347Z,0
2017-10-28T05:51:23.813Z,0
2017-10-28T05:52:24.440Z,0
2017-10-28T05:53:24.427Z,0
2017-10-28T05:54:24.754Z,0
2017-10-28T05:55:25.053Z,0
2017-10-28T05:56:24.111Z,0
2017-10-28T05:57:24.421Z,0
2017-10-28T05:58:24.411Z,0
2017-10-28T05:59:23.761Z,0
2017-10-28T06:00:24.352Z,0
2017-10-28T06:01:24.879Z,0
2017-10-28T06:02:24.596Z,0
2017-10-28T06:03:24.756Z,0
2017-10-28T06:04:24.260Z,0
2017-10-28T06:05:24.582Z,0
2017-10-28T06:06:24.232Z,0
2017-10-28T06:07:23.778Z,0
2017-10-28T06:08:24.487Z,0
2017-10-28T06:09:24.057Z,0
2017-10-28T06:10:23.968Z,0
2017-10-28T06:11:24.352Z,0
2017-10-28T06:12:24.355Z,0
2017-10-28T06:13:24.029Z,0
2017-10-28T06:14:24.675Z,0
2017-10-28T06:15:23.889Z,5
2017-10-28T06:16:23.684Z,5
2017-10-28T06:17:24.646Z,5
2017-10-28T06:18:24.016Z,5
2017-10-28T06:19:26.064Z,5
2017-10-28T06:20:24.246Z,5
2017-10-28T06:21:23.982Z,5
2017-10-28T06:22:24.634Z,5
2017-10-28T06:23:24.623Z,10
2017-10-28T06:24:23.653Z,10
2017-10-28T06:25:24.741Z,10
2017-10-28T06:26:24.292Z,10
2017-10-28T06:27:24.284Z,10
2017-10-28T06:28:24.273Z,10
2017-10-28T06:29:24.281Z,10
2017-10-28T06:30:24.561Z,15
2017-10-28T06:31:23.954Z,15
2017-10-28T06:32:24.591Z,15
2017-10-28T06:33:24.266Z,15
2017-10-28T06:34:24.595Z,15
2017-10-28T06:35:25.122Z,15
2017-10-28T06:36:24.572Z,20
2017-10-28T06:37:24.557Z,20
2017-10-28T06:38:24.592Z,20
2017-10-28T06:39:24.225Z,20
2017-10-28T06:40:24.925Z,20
2017-10-28T06:41:24.547Z,25
2017-10-28T06:42:23.898Z,25
2017-10-28T06:43:23.903Z,25
2017-10-28T06:44:23.881Z,25
2017-10-28T06:45:24.823Z,25
2017-10-28T06:46:23.877Z,30
2017-10-28T06:47:24.197Z,30
2017-10-28T06:48:24.201Z,30
2017-10-28T06:49:24.525Z,30
2017-10-28T06:50:27.393Z,30
2017-10-28T06:51:23.551Z,30
2017-10-28T06:52:23.857Z,30
2017-10-28T06:53:24.188Z,30
2017-10-28T06:54:23.854Z,30
2017-10-28T06:55:23.970Z,30
2017-10-28T06:56:24.163Z,30
2017-10-28T06:57:24.156Z,30
2017-10-28T06:58:24.150Z,30
2017-10-28T06:59:23.830Z,30
2017-10-28T07:00:23.914Z,30
2017-10-28T07:01:23.825Z,30
2017-10-28T07:02:23.489Z,30
2017-10-28T07:03:24.452Z,30
2017-10-28T07:04:24.451Z,35
2017-10-28T07:05:27.029Z,35
2017-10-28T07:06:24.130Z,40
2017-10-28T07:07:23.788Z,40
2017-10-28T07:08:24.435Z,45
2017-10-28T07:09:24.111Z,45
2017-10-28T07:10:24.275Z,45
2017-10-28T07:11:24.107Z,45
2017-10-28T07:12:23.783Z,50
2017-10-28T07:13:23.764Z,55
2017-10-28T07:14:24.430Z,55
2017-10-28T07:15:24.483Z,55
2017-10-28T07:16:23.750Z,55
2017-10-28T07:17:24.079Z,55
2017-10-28T07:18:24.071Z,60
2017-10-28T07:19:24.074Z,65
2017-10-28T07:20:24.016Z,75
2017-10-28T07:21:23.744Z,80
2017-10-28T07:22:24.067Z,80
2017-10-28T07:23:23.740Z,75
2017-10-28T07:24:24.050Z,70
2017-10-28T07:25:24.546Z,65
2017-10-28T07:26:24.054Z,65
2017-10-28T07:27:24.361Z,65
2017-10-28T07:28:24.357Z,60
2017-10-28T07:29:24.031Z,60
2017-10-28T07:30:23.948Z,60
2017-10-28T07:31:23.725Z,60
2017-10-28T07:32:23.704Z,60
2017-10-28T07:33:24.027Z,65
2017-10-28T07:34:24.016Z,65
2017-10-28T07:35:24.783Z,65
2017-10-28T07:36:23.729Z,60
2017-10-28T07:37:24.005Z,60
2017-10-28T07:38:24.012Z,55
2017-10-28T07:39:24.000Z,55
2017-10-28T07:40:24.124Z,55
2017-10-28T07:41:23.662Z,55
2017-10-28T07:42:23.993Z,60
2017-10-28T07:43:23.658Z,60
2017-10-28T07:44:23.976Z,70
2017-10-28T07:45:24.368Z,80
2017-10-28T07:46:23.657Z,85
2017-10-28T07:47:23.319Z,90
2017-10-28T07:48:23.637Z,95
2017-10-28T07:49:24.273Z,100
2017-10-28T07:50:24.465Z,100
2017-10-28T07:51:30.048Z,105
2017-10-28T07:52:23.640Z,110
2017-10-28T07:53:23.949Z,120
2017-10-28T07:54:23.935Z,125
2017-10-28T07:55:24.719Z,130
2017-10-28T07:56:23.610Z,135
2017-10-28T07:57:23.940Z,135
2017-10-28T07:58:23.921Z,140
2017-10-28T07:59:23.919Z,140
2017-10-28T08:00:24.431Z,135
2017-10-28T08:01:23.925Z,135
2017-10-28T08:02:23.590Z,140
2017-10-28T08:03:23.935Z,135
2017-10-28T08:04:23.606Z,135
2017-10-28T08:05:24.346Z,140
2017-10-28T08:06:24.290Z,140
2017-10-28T08:07:23.616Z,135
2017-10-28T08:08:24.253Z,135
2017-10-28T08:09:23.589Z,140
2017-10-28T08:10:24.707Z,145
2017-10-28T08:11:23.578Z,155
2017-10-28T08:12:24.210Z,165
2017-10-28T08:13:23.251Z,170
2017-10-28T08:14:23.889Z,170
2017-10-28T08:15:23.909Z,170
2017-10-28T08:16:25.216Z,170
2017-10-28T08:17:23.549Z,165
2017-10-28T08:18:23.879Z,160
2017-10-28T08:19:24.209Z,155
2017-10-28T08:20:23.766Z,160
2017-10-28T08:21:23.217Z,155
2017-10-28T08:22:25.399Z,155
2017-10-28T08:23:23.849Z,160
2017-10-28T08:24:23.537Z,155
2017-10-28T08:25:24.455Z,155
2017-10-28T08:26:24.175Z,155
2017-10-28T08:27:23.858Z,155
2017-10-28T08:28:23.852Z,155
2017-10-28T08:29:24.572Z,155
2017-10-28T08:30:23.683Z,160
2017-10-28T08:31:23.530Z,160
2017-10-28T08:32:24.162Z,165
2017-10-28T08:33:23.527Z,160
2017-10-28T08:34:23.836Z,160
2017-10-28T08:35:24.266Z,160
2017-10-28T08:36:23.837Z,160
2017-10-28T08:37:25.960Z,165
2017-10-28T08:38:24.186Z,165
2017-10-28T08:39:23.585Z,160
2017-10-28T08:40:23.859Z,160
2017-10-28T08:41:23.518Z,160
2017-10-28T08:42:23.509Z,165
2017-10-28T08:43:23.499Z,165
2017-10-28T08:44:23.827Z,165
2017-10-28T08:45:23.677Z,170
2017-10-28T08:46:23.817Z,175
2017-10-28T08:47:23.213Z,175
2017-10-28T08:48:23.205Z,175
2017-10-28T08:49:23.821Z,175
2017-10-28T08:50:24.007Z,175
2017-10-28T08:51:24.205Z,175
2017-10-28T08:52:24.208Z,175
2017-10-28T08:53:23.801Z,175
2017-10-28T08:54:22.831Z,175
2017-10-28T08:55:23.829Z,165
2017-10-28T08:56:23.812Z,165
2017-10-28T08:57:24.206Z,160
2017-10-28T08:58:23.790Z,160
2017-10-28T08:59:23.472Z,155
2017-10-28T09:00:24.181Z,155
2017-10-28T09:01:23.454Z,150
2017-10-28T09:02:23.771Z,150
2017-10-28T09:03:23.456Z,145
2017-10-28T09:04:23.457Z,135
2017-10-28T09:05:24.245Z,125
2017-10-28T09:06:23.458Z,125
2017-10-28T09:07:23.487Z,125
2017-10-28T09:08:25.422Z,125
2017-10-28T09:09:23.783Z,120
2017-10-28T09:10:24.065Z,110
2017-10-28T09:11:23.822Z,110
2017-10-28T09:12:23.820Z,115
2017-10-28T09:13:23.440Z,120
2017-10-28T09:14:23.748Z,130
2017-10-28T09:15:23.942Z,130
2017-10-28T09:16:24.176Z,125
2017-10-28T09:17:23.769Z,125
2017-10-28T09:18:23.429Z,125
2017-10-28T09:19:23.458Z,130
2017-10-28T09:20:24.059Z,130
2017-10-28T09:21:23.116Z,130
2017-10-28T09:22:23.447Z,125
2017-10-28T09:23:25.155Z,125
2017-10-28T09:24:23.427Z,125
2017-10-28T09:25:24.321Z,130
2017-10-28T09:26:23.422Z,135
2017-10-28T09:27:24.049Z,140
2017-10-28T09:28:23.727Z,145
2017-10-28T09:29:23.412Z,150
2017-10-28T09:30:24.036Z,160
2017-10-28T09:31:24.055Z,165
2017-10-28T09:32:23.734Z,175
2017-10-28T09:33:24.040Z,170
2017-10-28T09:34:23.404Z,170
2017-10-28T09:35:24.565Z,165
2017-10-28T09:36:24.060Z,165
2017-10-28T09:37:23.395Z,165
2017-10-28T09:38:25.053Z,165
2017-10-28T09:39:24.025Z,160
2017-10-28T09:40:23.483Z,150
2017-10-28T09:41:23.391Z,150
2017-10-28T09:42:24.046Z,155
2017-10-28T09:43:23.713Z,160
2017-10-28T09:44:23.716Z,165
2017-10-28T09:45:24.081Z,165
2017-10-28T09:46:23.743Z,170
2017-10-28T09:47:23.449Z,175
2017-10-28T09:48:24.019Z,180
2017-10-28T09:49:23.714Z,185
2017-10-28T09:50:24.069Z,190
2017-10-28T09:51:23.374Z,195
2017-10-28T09:52:23.764Z,195
2017-10-28T09:53:23.367Z,200
2017-10-28T09:54:24.473Z,205
2017-10-28T09:55:23.904Z,210
2017-10-28T09:56:23.362Z,210
2017-10-28T09:57:23.704Z,205
2017-10-28T09:58:23.682Z,210
2017-10-28T09:59:23.043Z,200
2017-10-28T10:00:24.305Z,185
2017-10-28T10:01:23.678Z,185
2017-10-28T10:02:24.003Z,185
2017-10-28T10:03:23.676Z,180
2017-10-28T10:04:23.365Z,180
2017-10-28T10:05:23.739Z,180
2017-10-28T10:06:23.385Z,180
2017-10-28T10:07:23.362Z,180
2017-10-28T10:08:23.389Z,180
2017-10-28T10:09:23.077Z,175
2017-10-28T10:10:24.712Z,175
2017-10-28T10:11:23.351Z,170
2017-10-28T10:12:23.672Z,165
2017-10-28T10:13:23.351Z,165
2017-10-28T10:14:23.344Z,165
2017-10-28T10:15:23.954Z,160
2017-10-28T10:16:23.024Z,150
2017-10-28T10:17:24.000Z,150
2017-10-28T10:18:23.336Z,160
2017-10-28T10:19:23.344Z,165
2017-10-28T10:20:23.645Z,170
2017-10-28T10:21:23.690Z,170
2017-10-28T10:22:23.334Z,170
2017-10-28T10:23:23.719Z,180
2017-10-28T10:24:26.857Z,200
2017-10-28T10:25:23.841Z,225
2017-10-28T10:26:23.663Z,205
2017-10-28T10:27:23.998Z,205
2017-10-28T10:28:23.320Z,215
2017-10-28T10:29:23.339Z,235
2017-10-28T10:30:23.144Z,245
2017-10-28T10:31:23.664Z,250
2017-10-28T10:32:23.315Z,265
2017-10-28T10:33:23.316Z,280
2017-10-28T10:34:23.321Z,305
2017-10-28T10:35:23.967Z,290
2017-10-28T10:36:23.962Z,280
2017-10-28T10:37:23.824Z,250
2017-10-28T10:38:23.654Z,245
2017-10-28T10:39:23.729Z,265
2017-10-28T10:40:24.372Z,245
2017-10-28T10:41:23.649Z,245
2017-10-28T10:42:23.315Z,250
2017-10-28T10:43:22.982Z,265
2017-10-28T10:44:23.643Z,270
2017-10-28T10:45:24.073Z,280
2017-10-28T10:46:23.326Z,285
2017-10-28T10:47:23.311Z,290
2017-10-28T10:48:23.347Z,290
2017-10-28T10:49:23.313Z,300
2017-10-28T10:50:23.590Z,285
2017-10-28T10:51:22.998Z,265
2017-10-28T10:52:23.045Z,265
2017-10-28T10:53:23.295Z,245
2017-10-28T10:54:22.981Z,235
2017-10-28T10:55:23.815Z,235
2017-10-28T10:56:22.988Z,235
2017-10-28T10:57:23.424Z,225
2017-10-28T10:58:23.736Z,235
2017-10-28T10:59:23.540Z,265
2017-10-28T11:00:23.983Z,255
2017-10-28T11:01:23.393Z,255
2017-10-28T11:02:23.296Z,245
2017-10-28T11:03:23.634Z,230
2017-10-28T11:04:23.288Z,220
2017-10-28T11:05:23.314Z,210
2017-10-28T11:06:23.615Z,200
2017-10-28T11:07:23.279Z,200
2017-10-28T11:08:23.600Z,200
2017-10-28T11:09:23.326Z,205
2017-10-28T11:10:23.108Z,210
2017-10-28T11:11:23.301Z,215
2017-10-28T11:12:23.598Z,220
2017-10-28T11:13:23.280Z,215
2017-10-28T11:14:23.280Z,200
2017-10-28T11:15:23.668Z,190
2017-10-28T11:16:23.309Z,205
2017-10-28T11:17:23.283Z,220
2017-10-28T11:18:24.036Z,225
2017-10-28T11:19:23.290Z,230
2017-10-28T11:20:25.202Z,230
2017-10-28T11:21:23.634Z,240
2017-10-28T11:22:22.986Z,240
2017-10-28T11:23:23.015Z,240
2017-10-28T11:24:23.842Z,245
2017-10-28T11:25:25.041Z,245
2017-10-28T11:26:23.280Z,255
2017-10-28T11:27:23.630Z,260
2017-10-28T11:28:23.627Z,250
2017-10-28T11:29:23.286Z,245
2017-10-28T11:30:24.977Z,235
2017-10-28T11:31:23.685Z,225
2017-10-28T11:32:22.997Z,225
2017-10-28T11:33:23.937Z,225
2017-10-28T11:34:23.294Z,225
2017-10-28T11:35:24.495Z,220
2017-10-28T11:36:23.603Z,215
2017-10-28T11:37:22.993Z,215
2017-10-28T11:38:23.288Z,210
2017-10-28T11:39:23.721Z,210
2017-10-28T11:40:24.422Z,210
2017-10-28T11:41:22.986Z,210
2017-10-28T11:42:22.934Z,220
2017-10-28T11:43:23.610Z,215
2017-10-28T11:44:23.282Z,220
2017-10-28T11:45:24.508Z,220
2017-10-28T11:46:23.298Z,220
2017-10-28T11:47:23.282Z,215
2017-10-28T11:48:22.986Z,220
2017-10-28T11:49:23.021Z,220
2017-10-28T11:50:24.456Z,220
2017-10-28T11:51:22.922Z,220
2017-10-28T11:52:23.570Z,220
2017-10-28T11:53:23.885Z,220
2017-10-28T11:54:23.887Z,220
2017-10-28T11:55:24.912Z,215
2017-10-28T11:56:23.594Z,215
2017-10-28T11:57:23.247Z,220
2017-10-28T11:58:23.882Z,215
2017-10-28T11:59:22.927Z,210
2017-10-28T12:00:24.148Z,210
2017-10-28T12:01:22.917Z,210
2017-10-28T12:02:23.248Z,205
2017-10-28T12:03:23.487Z,200
2017-10-28T12:04:23.231Z,200
2017-10-28T12:05:24.874Z,195
2017-10-28T12:06:22.920Z,190
2017-10-28T12:07:23.240Z,185
2017-10-28T12:08:23.641Z,185
2017-10-28T12:09:23.211Z,180
2017-10-28T12:10:25.362Z,180
2017-10-28T12:11:23.232Z,180
2017-10-28T12:12:23.557Z,175
2017-10-28T12:13:23.531Z,175
2017-10-28T12:14:23.548Z,170
2017-10-28T12:15:25.892Z,170
2017-10-28T12:16:23.527Z,165
2017-10-28T12:17:23.550Z,165
2017-10-28T12:18:23.859Z,165
2017-10-28T12:19:23.523Z,165
2017-10-28T12:20:23.663Z,165
2017-10-28T12:21:23.844Z,165
2017-10-28T12:22:23.208Z,170
2017-10-28T12:23:23.513Z,170
2017-10-28T12:24:23.537Z,170
2017-10-28T12:25:25.567Z,180
2017-10-28T12:26:22.950Z,185
2017-10-28T12:27:23.624Z,185
2017-10-28T12:28:23.985Z,185
2017-10-28T12:29:23.863Z,185
2017-10-28T12:30:24.335Z,185
2017-10-28T12:31:23.194Z,185
2017-10-28T12:32:23.200Z,190
2017-10-28T12:33:23.195Z,190
2017-10-28T12:34:23.504Z,185
2017-10-28T12:35:24.963Z,185
2017-10-28T12:36:23.561Z,190
2017-10-28T12:37:23.184Z,190
2017-10-28T12:38:23.178Z,190
2017-10-28T12:39:23.281Z,195
2017-10-28T12:40:24.782Z,200
2017-10-28T12:41:23.846Z,205
2017-10-28T12:42:22.527Z,205
2017-10-28T12:43:23.863Z,210
2017-10-28T12:44:22.534Z,215
2017-10-28T12:45:25.200Z,205
2017-10-28T12:46:23.494Z,205
2017-10-28T12:47:23.780Z,200
2017-10-28T12:48:23.158Z,195
2017-10-28T12:49:23.835Z,190
2017-10-28T12:50:24.712Z,190
2017-10-28T12:51:23.189Z,185
2017-10-28T12:52:23.160Z,185
2017-10-28T12:53:23.157Z,185
2017-10-28T12:54:23.145Z,190
2017-10-28T12:55:23.914Z,185
2017-10-28T12:56:25.122Z,180
2017-10-28T12:57:23.503Z,180
2017-10-28T12:58:22.829Z,180
2017-10-28T12:59:23.482Z,180
2017-10-28T13:00:24.547Z,180
2017-10-28T13:01:23.472Z,180
2017-10-28T13:02:23.464Z,180
2017-10-28T13:03:23.475Z,180
2017-10-28T13:04:23.448Z,180
2017-10-28T13:05:23.285Z,180
2017-10-28T13:06:23.448Z,180
2017-10-28T13:07:23.152Z,180
2017-10-28T13:08:23.460Z,180
2017-10-28T13:09:23.140Z,175
2017-10-28T13:10:24.256Z,175
2017-10-28T13:11:23.490Z,175
2017-10-28T13:12:23.117Z,165
2017-10-28T13:13:23.453Z,155
2017-10-28T13:14:23.124Z,155
2017-10-28T13:15:24.004Z,155
2017-10-28T13:16:23.770Z,150
2017-10-28T13:17:23.439Z,150
2017-10-28T13:18:23.114Z,150
2017-10-28T13:19:23.137Z,150
2017-10-28T13:20:24.046Z,150
2017-10-28T13:21:23.427Z,150
2017-10-28T13:22:23.436Z,150
2017-10-28T13:23:23.415Z,150
2017-10-28T13:24:23.755Z,150
2017-10-28T13:25:23.388Z,150
2017-10-28T13:26:25.316Z,155
2017-10-28T13:27:22.767Z,155
2017-10-28T13:28:23.091Z,150
2017-10-28T13:29:22.779Z,145
2017-10-28T13:30:23.450Z,140
2017-10-28T13:31:23.402Z,130
2017-10-28T13:32:23.086Z,130
2017-10-28T13:33:23.409Z,125
2017-10-28T13:34:23.425Z,115
2017-10-28T13:35:24.009Z,115
2017-10-28T13:36:22.770Z,110
2017-10-28T13:37:23.398Z,110
2017-10-28T13:38:23.076Z,110
2017-10-28T13:39:23.259Z,105
2017-10-28T13:40:23.498Z,105
2017-10-28T13:41:23.289Z,105
2017-10-28T13:42:23.385Z,100
2017-10-28T13:43:23.063Z,100
2017-10-28T13:44:23.383Z,100
2017-10-28T13:45:23.176Z,95
2017-10-28T13:46:23.375Z,95
2017-10-28T13:47:23.706Z,95
2017-10-28T13:48:23.053Z,95
2017-10-28T13:49:22.727Z,95
2017-10-28T13:50:23.594Z,95
2017-10-28T13:51:23.863Z,95
2017-10-28T13:52:23.404Z,95
2017-10-28T13:53:23.908Z,95
2017-10-28T13:54:23.048Z,95
2017-10-28T13:55:23.710Z,100
2017-10-28T13:56:24.086Z,100
2017-10-28T13:57:23.039Z,100
2017-10-28T13:58:23.041Z,105
2017-10-28T13:59:23.366Z,105
2017-10-28T14:00:23.233Z,105
2017-10-28T14:01:23.339Z,110
2017-10-28T14:02:23.363Z,110
2017-10-28T14:03:22.713Z,110
2017-10-28T14:04:23.017Z,110
2017-10-28T14:05:23.381Z,115
2017-10-28T14:06:23.661Z,115
2017-10-28T14:07:23.337Z,115
2017-10-28T14:08:23.329Z,110
2017-10-28T14:09:23.665Z,110
2017-10-28T14:10:24.109Z,110
2017-10-28T14:11:23.377Z,110
2017-10-28T14:12:23.340Z,110
2017-10-28T14:13:23.319Z,110
2017-10-28T14:14:23.314Z,110
2017-10-28T14:15:23.726Z,115